Hayden, Indiana
Current Conditions -  °F | °C
As of 1:45 PM on Monday 20 Oct 2014 (Local Time) from KBAK Reporting Station
Scattered Clouds Scattered Clouds  
Wind Chill: 64°   Ceiling: Unl
Heat Index: 64°   Visibility: 10mi
Dew Point: 54°   Wind: 17mph
Humidity: 68%   Direction: 220°SW
Pressure: 29.87"   Gusts: NA
Location:  38.98°N, 85.74°W
Report Text: KBAK 201745Z 22015KT 10SM SCT065 18/12 A2987
Loading
Personal Weather Stations






























Interactive Weather Map
Tropical Storm Tracking
New forecast layout! Learn more

10-Day Weather Forecast

Advertisements
Track Severe Weather on mobile